Aérodrome :
LOGIN :

S'inscrire | Disclaimer

   EN    FR    IT 

 










Légende :    VFR   VFR Marginal   IFR   IFR Intensif   IFR Très Intensif
Visi : 
Plafond : 
>= 8 km
>= 3000ft
5 à 8 km
1000 à 3000 ft
1500m à 5 km
500 à 1000 ft
800 à 1500m
200 à 500 ft
< 800m
< 200 ft
Symboles :   Orages  Brouillard  Fortes neiges  Fortes précipitations  Vent > 20 kt
SIGMETs :   Divers  Orages  Givrage  Turbulence  Onde Orograph.  Cendres Volcan.







- Altitude de l'aérodrome : 39 ft
- Code IATA : CTA


LICC - Catania Fontanarossa

DERNIER METAR :
  • 151950Z 04008KT 010V070 8000 FEW025 BKN050 23/22 Q1007 RERA

METARs EXPIRÉS :
  • 151920Z 03011KT 6000 RA SCT009 BKN015 24/22 Q1007
  • 151850Z 07010KT 9999 FEW007 BKN010 25/24 Q1006
  • 151820Z 07012KT 9999 FEW007 BKN010 25/24 Q1006
  • 151750Z 07010KT 9999 SCT015 BKN050 25/23 Q1006
  • 151720Z 05013KT 9999 SCT020 BKN040 25/22 Q1006

TAF TAF LICC
Valide du 15 à 18h jusqu'au 16 à 18h UTC


151700Z 1518/1618 09012KT 9999 SCT030
BECMG 1518/1520 25008KT
TEMPO 1518/1522 TSRA
BECMG 1610/1612 10012KT
TEMPO 1612/1617 4000 TSRA
Pas de NOTAMs connus pour ce terrain.
2 SIGMETs publiés pour la FIR Roma (LIRR) :
 
Orages noyés dans la masse
LIRR SIGMET 9 VALID 152007/152310 LIIB
LIRR ROMA FIR EMBD TS FCST WI N4309 E00941 - N4119 E00941 - N3913 E01459 - N3957 E01548 - N4113 E01512 - N4106 E01348 - N4331 E01014 - N4309 E00941 TOP ABV FL300 STNR NC=
Orages noyés dans la masse
LIRR SIGMET 10 VALID 152009/152310 LIIB
LIRR ROMA FIR EMBD TS FCST WI N3907 E01610 - N3629 E01430 - N3631 E01705 - N3855 E01635 - N3907 E01610 TOP ABV FL300 STNR NC=



MET'MAP, la Météo Aéronautique d'un coup d'oeil ! - Copyright ORBIFLY Décembre 2007 - Disclaimer

ORBIFLY MET'MAP TEAM :

Programmation & Développement : Alexandra Zaïnal
Conception & Développement : Baudouin d'Aumeries
Co-Programmation & Développement : Marc-Olivier Méhu
Soutien technique & logistique : Manuel Goepfert

Contact : metmap@orbifly.com




SOURCES & CREDITS :

   NOAA